createdAt,value
2022-11-29T00:01:15.107Z,2.59
2022-11-29T00:03:41.951Z,2.46
2022-11-29T00:06:10.237Z,2.46
2022-11-29T00:08:37.220Z,2.38
2022-11-29T00:11:08.334Z,2.40
2022-11-29T00:13:35.084Z,2.53
2022-11-29T00:16:14.917Z,2.43
2022-11-29T00:18:41.640Z,2.51
2022-11-29T00:21:08.803Z,2.56
2022-11-29T00:23:36.005Z,2.43
2022-11-29T00:26:03.534Z,2.36
2022-11-29T00:28:30.120Z,2.33
2022-11-29T00:30:56.817Z,2.39
2022-11-29T00:33:23.447Z,2.62
2022-11-29T00:35:49.959Z,2.46
2022-11-29T00:38:16.627Z,2.38
2022-11-29T00:40:43.120Z,2.38
2022-11-29T00:43:09.675Z,2.43
2022-11-29T00:45:36.220Z,2.43
2022-11-29T00:48:02.691Z,2.52
2022-11-29T00:50:29.278Z,2.51
2022-11-29T00:52:55.817Z,2.35
2022-11-29T00:55:22.535Z,2.49
2022-11-29T00:57:49.090Z,2.58
2022-11-29T01:00:15.998Z,2.70
2022-11-29T01:02:42.600Z,2.73
2022-11-29T01:05:09.475Z,2.56
2022-11-29T01:07:36.031Z,2.61
2022-11-29T01:10:02.836Z,2.53
2022-11-29T01:12:29.513Z,2.66
2022-11-29T01:14:56.228Z,2.57
2022-11-29T01:17:22.885Z,2.55
2022-11-29T01:19:51.015Z,2.57
2022-11-29T01:22:18.073Z,2.55
2022-11-29T01:24:45.009Z,2.68
2022-11-29T01:27:11.766Z,2.58
2022-11-29T01:29:38.862Z,2.51
2022-11-29T01:32:05.404Z,2.89
2022-11-29T01:34:31.913Z,2.69
2022-11-29T01:36:58.410Z,2.68
2022-11-29T01:39:25.213Z,2.58
2022-11-29T01:41:51.882Z,2.74
2022-11-29T01:44:18.338Z,2.63
2022-11-29T01:46:45.983Z,2.75
2022-11-29T01:49:15.173Z,2.80
2022-11-29T01:51:44.991Z,2.85
2022-11-29T01:54:12.644Z,2.72
2022-11-29T01:56:39.858Z,2.80
2022-11-29T01:59:08.627Z,2.74
2022-11-29T02:01:35.772Z,2.66
2022-11-29T02:04:02.411Z,2.69
2022-11-29T02:06:30.332Z,2.69
2022-11-29T02:08:57.334Z,2.74
2022-11-29T02:11:59.409Z,2.76
2022-11-29T02:14:31.948Z,2.62
2022-11-29T02:17:04.722Z,2.62
2022-11-29T02:19:54.039Z,2.63
2022-11-29T02:22:41.791Z,2.70
2022-11-29T02:25:34.605Z,2.65
2022-11-29T02:28:19.973Z,2.80
2022-11-29T02:30:58.794Z,2.71
2022-11-29T02:33:28.453Z,2.60
2022-11-29T02:36:00.411Z,2.64
2022-11-29T02:38:40.168Z,2.60
2022-11-29T02:41:22.645Z,2.60
2022-11-29T02:43:52.243Z,2.62
2022-11-29T02:46:21.826Z,2.72
2022-11-29T02:48:51.228Z,2.57
2022-11-29T02:51:22.852Z,2.54
2022-11-29T02:53:52.483Z,2.51
2022-11-29T02:56:29.923Z,2.59
2022-11-29T02:58:56.333Z,2.61
2022-11-29T03:01:32.268Z,2.55
2022-11-29T03:04:11.221Z,2.50
2022-11-29T03:06:37.700Z,2.60
2022-11-29T03:09:10.418Z,2.61
2022-11-29T03:11:39.727Z,2.54
2022-11-29T03:14:31.106Z,2.57
2022-11-29T03:17:07.480Z,2.52
2022-11-29T03:19:33.986Z,2.53
2022-11-29T03:22:00.577Z,2.52
2022-11-29T03:24:35.847Z,2.71
2022-11-29T03:27:06.600Z,2.56
2022-11-29T03:29:36.359Z,2.48
2022-11-29T03:32:23.029Z,2.47
2022-11-29T03:35:13.308Z,2.65
2022-11-29T03:37:50.509Z,2.51
2022-11-29T03:40:19.752Z,2.48
2022-11-29T03:42:51.900Z,2.64
2022-11-29T03:45:28.036Z,2.57
2022-11-29T03:47:58.161Z,2.47
2022-11-29T03:50:28.107Z,2.46
2022-11-29T03:53:03.218Z,2.61
2022-11-29T03:55:33.466Z,2.53
2022-11-29T03:58:18.296Z,2.59
2022-11-29T04:00:47.845Z,2.50
2022-11-29T04:03:27.827Z,2.52
2022-11-29T04:06:03.459Z,2.50
2022-11-29T04:08:45.264Z,2.52
2022-11-29T04:11:20.994Z,2.42
2022-11-29T04:13:47.429Z,2.41
2022-11-29T04:16:46.283Z,2.43
2022-11-29T04:19:27.924Z,2.38
2022-11-29T04:22:12.650Z,2.45
2022-11-29T04:24:50.418Z,2.39
2022-11-29T04:27:26.124Z,2.48
2022-11-29T04:30:02.145Z,2.52
2022-11-29T04:32:31.518Z,2.53
2022-11-29T04:35:14.867Z,2.54
2022-11-29T04:37:41.325Z,2.45
2022-11-29T04:40:31.101Z,2.39
2022-11-29T04:43:20.788Z,2.64
2022-11-29T04:46:06.764Z,2.53
2022-11-29T04:48:43.424Z,2.74
2022-11-29T04:51:21.776Z,2.60
2022-11-29T04:53:52.249Z,2.63
2022-11-29T04:56:38.003Z,2.45
2022-11-29T04:59:23.525Z,2.48
2022-11-29T05:02:10.175Z,2.58
2022-11-29T05:04:42.813Z,2.62
2022-11-29T05:07:19.407Z,2.61
2022-11-29T05:10:04.814Z,2.69
2022-11-29T05:12:37.771Z,2.75
2022-11-29T05:15:16.973Z,2.75
2022-11-29T05:17:49.591Z,2.50
2022-11-29T05:20:24.405Z,2.42
2022-11-29T05:22:58.639Z,2.36
2022-11-29T05:25:27.899Z,2.43
2022-11-29T05:27:54.304Z,2.57
2022-11-29T05:30:22.695Z,2.49
2022-11-29T05:32:58.508Z,2.64
2022-11-29T05:35:31.071Z,2.44
2022-11-29T05:38:10.256Z,2.41
2022-11-29T05:40:55.690Z,2.58
2022-11-29T05:43:22.131Z,2.42
2022-11-29T05:45:51.661Z,2.43
2022-11-29T05:48:37.311Z,2.52
2022-11-29T05:51:15.815Z,2.51
2022-11-29T05:53:55.066Z,2.60
2022-11-29T05:56:40.295Z,2.53
2022-11-29T05:59:13.319Z,2.51
2022-11-29T06:01:55.439Z,2.64
2022-11-29T06:04:29.799Z,2.53
2022-11-29T06:07:15.013Z,2.46
2022-11-29T06:09:47.067Z,2.57
2022-11-29T06:12:21.274Z,2.60
2022-11-29T06:14:57.387Z,2.61
2022-11-29T06:17:39.078Z,2.52
2022-11-29T06:20:09.156Z,2.47
2022-11-29T06:22:47.676Z,2.50
2022-11-29T06:25:33.301Z,2.59
2022-11-29T06:28:18.468Z,2.58
2022-11-29T06:30:45.137Z,2.52
2022-11-29T06:33:21.483Z,2.74
2022-11-29T06:35:50.803Z,2.74
2022-11-29T06:38:25.972Z,2.81
2022-11-29T06:41:00.125Z,2.65
2022-11-29T06:43:28.361Z,2.61
2022-11-29T06:46:01.225Z,2.73
2022-11-29T06:48:30.981Z,2.73
2022-11-29T06:51:07.389Z,2.63
2022-11-29T06:53:34.539Z,2.61
2022-11-29T06:56:08.304Z,2.70
2022-11-29T06:58:36.342Z,2.72
2022-11-29T07:01:08.661Z,2.74
2022-11-29T07:03:54.099Z,2.72
2022-11-29T07:06:20.900Z,2.69
2022-11-29T07:08:49.249Z,2.70
2022-11-29T07:11:16.548Z,2.73
2022-11-29T07:13:43.285Z,2.79
2022-11-29T07:16:26.783Z,2.77
2022-11-29T07:19:11.948Z,2.73
2022-11-29T07:21:38.446Z,3.04
2022-11-29T07:24:20.407Z,3.01
2022-11-29T07:26:59.431Z,2.93
2022-11-29T07:29:35.486Z,2.87
2022-11-29T07:32:25.819Z,2.79
2022-11-29T07:34:58.653Z,3.09
2022-11-29T07:37:28.190Z,3.04
2022-11-29T07:40:13.529Z,2.92
2022-11-29T07:42:52.439Z,3.02
2022-11-29T07:45:28.323Z,2.97
2022-11-29T07:47:54.974Z,2.89
2022-11-29T07:50:21.946Z,3.35
2022-11-29T07:52:48.484Z,3.22
2022-11-29T07:55:18.956Z,3.14
2022-11-29T07:57:45.919Z,3.09
2022-11-29T08:00:12.812Z,3.06
2022-11-29T08:02:39.950Z,3.00
2022-11-29T08:05:07.317Z,3.08
2022-11-29T08:07:34.643Z,3.26
2022-11-29T08:10:01.408Z,3.32
2022-11-29T08:12:27.948Z,3.25
2022-11-29T08:14:54.757Z,3.26
2022-11-29T08:17:21.349Z,3.35
2022-11-29T08:19:47.876Z,3.52
2022-11-29T08:22:14.512Z,3.60
2022-11-29T08:24:41.306Z,3.31
2022-11-29T08:27:07.842Z,3.41
2022-11-29T08:29:34.528Z,3.52
2022-11-29T08:32:01.428Z,3.36
2022-11-29T08:34:28.148Z,3.31
2022-11-29T08:36:56.051Z,3.37
2022-11-29T08:39:22.964Z,3.31
2022-11-29T08:41:49.760Z,3.35
2022-11-29T08:44:16.344Z,3.40
2022-11-29T08:47:01.579Z,3.42
2022-11-29T08:49:28.152Z,3.55
2022-11-29T08:52:14.558Z,3.47
2022-11-29T08:54:41.093Z,3.40
2022-11-29T08:57:38.738Z,3.40
2022-11-29T08:59:54.172Z,3.43
2022-11-29T09:02:20.771Z,3.36
2022-11-29T09:04:47.609Z,3.65
2022-11-29T09:07:14.273Z,3.71
2022-11-29T09:09:40.951Z,3.54
2022-11-29T09:12:08.856Z,3.67
2022-11-29T09:14:35.381Z,3.54
2022-11-29T09:17:02.361Z,3.81
2022-11-29T09:19:28.830Z,3.78
2022-11-29T09:21:55.592Z,3.68
2022-11-29T09:24:22.103Z,3.69
2022-11-29T09:26:48.713Z,3.68
2022-11-29T09:29:18.472Z,3.80
2022-11-29T09:31:48.172Z,3.73
2022-11-29T09:34:22.195Z,4.04
2022-11-29T09:36:51.853Z,3.89
2022-11-29T09:39:18.477Z,3.93
2022-11-29T09:42:05.946Z,4.16
2022-11-29T09:44:32.422Z,4.08
2022-11-29T09:47:17.755Z,4.11
2022-11-29T09:50:08.866Z,4.22
2022-11-29T09:52:56.721Z,4.05
2022-11-29T09:56:00.452Z,3.89
2022-11-29T09:58:38.317Z,3.97
2022-11-29T10:01:07.936Z,3.98
2022-11-29T10:03:38.409Z,4.05
2022-11-29T10:06:18.952Z,4.14
2022-11-29T10:08:53.992Z,4.30
2022-11-29T10:11:41.602Z,4.23
2022-11-29T10:14:18.087Z,4.28
2022-11-29T10:16:51.191Z,4.31
2022-11-29T10:19:35.224Z,4.32
2022-11-29T10:22:20.342Z,4.38
2022-11-29T10:24:49.362Z,4.29
2022-11-29T10:27:19.568Z,4.25
2022-11-29T10:29:50.406Z,4.38
2022-11-29T10:32:19.865Z,4.43
2022-11-29T10:34:47.130Z,4.66
2022-11-29T10:37:16.194Z,4.53
2022-11-29T10:39:48.802Z,4.42
2022-11-29T10:42:44.575Z,4.48
2022-11-29T10:45:16.866Z,4.61
2022-11-29T10:47:45.799Z,4.51
2022-11-29T10:50:29.056Z,4.48
2022-11-29T10:53:00.148Z,4.67
2022-11-29T10:55:27.929Z,4.57
2022-11-29T10:58:11.999Z,4.55
2022-11-29T11:00:51.667Z,4.34
2022-11-29T11:03:25.828Z,4.36
2022-11-29T11:06:04.282Z,4.40
2022-11-29T11:08:31.355Z,4.51
2022-11-29T11:11:01.715Z,4.45
2022-11-29T11:13:31.005Z,4.77
2022-11-29T11:16:16.321Z,5.18
2022-11-29T11:18:43.175Z,5.12
2022-11-29T11:21:11.974Z,5.02
2022-11-29T11:23:58.457Z,4.73
2022-11-29T11:26:26.050Z,4.68
2022-11-29T11:28:58.587Z,4.55
2022-11-29T11:31:30.686Z,4.51
2022-11-29T11:33:57.671Z,4.62
2022-11-29T11:36:28.282Z,4.61
2022-11-29T11:38:56.351Z,4.63
2022-11-29T11:41:49.028Z,4.82
2022-11-29T11:44:49.762Z,4.69
2022-11-29T11:47:24.545Z,4.73
2022-11-29T11:50:00.306Z,4.79
2022-11-29T11:52:29.034Z,4.84
2022-11-29T11:54:58.690Z,4.71
2022-11-29T11:57:26.036Z,4.75
2022-11-29T11:59:53.723Z,4.78
2022-11-29T12:02:36.089Z,4.75
2022-11-29T12:05:05.323Z,4.76
2022-11-29T12:08:06.633Z,4.88
2022-11-29T12:10:32.064Z,5.05
2022-11-29T12:12:59.540Z,4.95
2022-11-29T12:15:28.029Z,4.77
2022-11-29T12:17:57.566Z,4.85
2022-11-29T12:20:39.963Z,4.80
2022-11-29T12:23:12.754Z,4.94
2022-11-29T12:25:54.280Z,4.91
2022-11-29T12:28:46.662Z,4.85
2022-11-29T12:31:31.999Z,4.86
2022-11-29T12:33:58.597Z,4.77
2022-11-29T12:36:41.660Z,4.71
2022-11-29T12:39:39.226Z,4.69
2022-11-29T12:42:26.170Z,4.66
2022-11-29T12:45:20.883Z,4.74
2022-11-29T12:48:16.532Z,4.77
2022-11-29T12:51:10.360Z,4.74
2022-11-29T12:54:03.015Z,4.80
2022-11-29T12:56:41.759Z,4.69
2022-11-29T12:59:17.473Z,4.82
2022-11-29T13:02:05.816Z,4.74
2022-11-29T13:05:00.995Z,4.60
2022-11-29T13:07:46.762Z,4.38
2022-11-29T13:10:37.741Z,4.43
2022-11-29T13:13:04.280Z,4.46
2022-11-29T13:16:00.276Z,4.45
2022-11-29T13:18:50.168Z,4.43
2022-11-29T13:21:34.746Z,4.47
2022-11-29T13:24:11.443Z,4.51
2022-11-29T13:26:44.064Z,4.58
2022-11-29T13:29:21.039Z,4.46
2022-11-29T13:31:52.771Z,4.48
2022-11-29T13:38:10.403Z,4.48
2022-11-29T13:40:38.932Z,4.50
2022-11-29T13:43:20.945Z,4.47
2022-11-29T13:46:00.804Z,4.42
2022-11-29T13:48:53.604Z,4.51
2022-11-29T13:51:30.826Z,4.30
2022-11-29T13:54:00.675Z,4.50
2022-11-29T13:56:49.281Z,4.52
2022-11-29T13:59:23.768Z,4.41
2022-11-29T14:01:52.967Z,4.35
2022-11-29T14:04:24.268Z,4.26
2022-11-29T14:07:01.486Z,4.21
2022-11-29T14:09:31.199Z,4.34
2022-11-29T14:12:02.485Z,4.38
2022-11-29T14:14:40.342Z,4.35
2022-11-29T14:17:26.746Z,4.24
2022-11-29T14:20:13.258Z,4.19
2022-11-29T14:22:59.656Z,4.24
2022-11-29T14:26:00.432Z,4.21
2022-11-29T14:28:17.277Z,4.06
2022-11-29T14:30:44.072Z,4.08
2022-11-29T14:33:13.648Z,4.18
2022-11-29T14:35:46.591Z,4.09
2022-11-29T14:38:19.413Z,4.23
2022-11-29T14:40:53.120Z,4.11
2022-11-29T14:43:39.736Z,4.10
2022-11-29T14:46:15.620Z,4.18
2022-11-29T14:48:58.652Z,4.07
2022-11-29T14:51:26.768Z,4.01
2022-11-29T14:54:13.161Z,3.99
2022-11-29T14:56:43.550Z,3.89
2022-11-29T14:59:30.980Z,3.95
2022-11-29T15:02:02.472Z,4.00
2022-11-29T15:04:33.789Z,3.88
2022-11-29T15:07:01.670Z,3.84
2022-11-29T15:09:36.031Z,3.87
2022-11-29T15:12:08.078Z,3.99
2022-11-29T15:14:34.677Z,3.85
2022-11-29T15:17:05.758Z,3.83
2022-11-29T15:19:54.327Z,3.82
2022-11-29T15:22:22.445Z,3.86
2022-11-29T15:24:49.878Z,3.76
2022-11-29T15:27:18.236Z,3.83
2022-11-29T15:29:48.671Z,3.81
2022-11-29T15:32:35.516Z,3.77
2022-11-29T15:35:02.231Z,3.78
2022-11-29T15:37:37.620Z,3.75
2022-11-29T15:40:06.656Z,3.66
2022-11-29T15:42:53.607Z,3.66
2022-11-29T15:45:23.544Z,3.74
2022-11-29T15:47:50.538Z,3.70
2022-11-29T15:50:26.074Z,3.79
2022-11-29T15:53:00.562Z,3.72
2022-11-29T15:55:30.793Z,3.69
2022-11-29T15:57:58.275Z,3.68
2022-11-29T16:00:28.108Z,3.74
2022-11-29T16:03:02.181Z,3.69
2022-11-29T16:05:33.100Z,3.69
2022-11-29T16:08:15.134Z,3.66
2022-11-29T16:10:56.211Z,3.92
2022-11-29T16:13:26.182Z,3.92
2022-11-29T16:16:12.340Z,3.74
2022-11-29T16:18:52.240Z,3.70
2022-11-29T16:21:24.688Z,3.65
2022-11-29T16:24:05.700Z,3.67
2022-11-29T16:27:06.384Z,3.71
2022-11-29T16:32:36.830Z,3.71
2022-11-29T16:35:07.253Z,3.66
2022-11-29T16:37:41.630Z,3.60
2022-11-29T16:40:23.541Z,3.65
2022-11-29T16:43:12.289Z,3.72
2022-11-29T16:48:58.172Z,3.60
2022-11-29T16:51:32.710Z,3.59
2022-11-29T16:54:25.211Z,3.71
2022-11-29T16:56:55.742Z,3.71
2022-11-29T16:59:28.230Z,3.64
2022-11-29T17:02:09.618Z,3.62
2022-11-29T17:04:36.695Z,3.71
2022-11-29T17:07:08.626Z,3.78
2022-11-29T17:09:43.610Z,3.70
2022-11-29T17:12:14.356Z,3.84
2022-11-29T17:14:48.754Z,3.76
2022-11-29T17:17:21.639Z,3.70
2022-11-29T17:19:48.336Z,3.65
2022-11-29T17:22:26.680Z,3.63
2022-11-29T17:24:53.621Z,3.81
2022-11-29T17:27:28.727Z,3.70
2022-11-29T17:29:55.472Z,3.76
2022-11-29T17:32:26.688Z,3.63
2022-11-29T17:34:54.176Z,3.67
2022-11-29T17:37:29.442Z,3.66
2022-11-29T17:39:58.384Z,3.79
2022-11-29T17:42:24.976Z,3.78
2022-11-29T17:44:53.789Z,3.72
2022-11-29T17:47:24.009Z,3.87
2022-11-29T17:49:50.454Z,3.80
2022-11-29T17:52:20.983Z,3.70
2022-11-29T17:54:50.848Z,3.92
2022-11-29T17:57:50.734Z,3.68
2022-11-29T18:00:25.450Z,3.80
2022-11-29T18:02:59.611Z,3.76
2022-11-29T18:05:34.794Z,3.72
2022-11-29T18:08:06.417Z,3.75
2022-11-29T18:10:33.146Z,3.74
2022-11-29T18:13:05.005Z,3.70
2022-11-29T18:15:37.713Z,3.66
2022-11-29T18:18:10.029Z,3.74
2022-11-29T18:20:37.086Z,3.83
2022-11-29T18:23:19.475Z,3.82
2022-11-29T18:25:54.696Z,3.75
2022-11-29T18:34:11.437Z,3.84
2022-11-29T18:36:54.382Z,3.70
2022-11-29T18:39:29.504Z,3.74
2022-11-29T18:42:08.500Z,3.72
2022-11-29T18:44:36.005Z,3.80
2022-11-29T18:47:03.970Z,3.82
2022-11-29T18:49:30.408Z,3.78
2022-11-29T18:51:56.872Z,3.74
2022-11-29T18:54:23.350Z,3.72
2022-11-29T18:56:50.742Z,3.73
2022-11-29T18:59:17.727Z,3.70
2022-11-29T19:01:45.440Z,3.76
2022-11-29T19:04:13.408Z,3.85
2022-11-29T19:06:40.459Z,3.86
2022-11-29T19:09:07.884Z,3.83
2022-11-29T19:11:34.980Z,3.80
2022-11-29T19:14:04.909Z,3.96
2022-11-29T19:16:32.800Z,4.01
2022-11-29T19:19:00.034Z,3.87
2022-11-29T19:21:27.625Z,3.86
2022-11-29T19:23:55.453Z,3.72
2022-11-29T19:26:22.892Z,3.76
2022-11-29T19:28:49.634Z,3.83
2022-11-29T19:31:17.695Z,3.92
2022-11-29T19:33:44.893Z,3.94
2022-11-29T19:36:16.268Z,4.02
2022-11-29T19:38:43.422Z,3.92
2022-11-29T19:41:11.106Z,3.93
2022-11-29T19:43:37.568Z,4.01
2022-11-29T19:46:14.464Z,4.05
2022-11-29T19:48:41.268Z,3.91
2022-11-29T19:51:08.092Z,4.10
2022-11-29T19:53:35.208Z,4.09
2022-11-29T19:56:09.365Z,4.03
2022-11-29T19:58:35.866Z,3.93
2022-11-29T20:01:05.202Z,3.99
2022-11-29T20:03:31.800Z,4.05
2022-11-29T20:05:58.282Z,3.94
2022-11-29T20:08:24.771Z,3.86
2022-11-29T20:10:52.017Z,4.07
2022-11-29T20:13:18.609Z,4.03
2022-11-29T20:15:45.144Z,4.07
2022-11-29T20:18:11.653Z,4.04
2022-11-29T20:20:38.413Z,4.15
2022-11-29T20:23:04.876Z,4.13
2022-11-29T20:25:31.613Z,3.95
2022-11-29T20:27:58.540Z,3.96
2022-11-29T20:30:25.893Z,4.05
2022-11-29T20:32:52.394Z,3.98
2022-11-29T20:35:19.185Z,4.09
2022-11-29T20:38:04.218Z,3.95
2022-11-29T20:41:03.392Z,4.09
2022-11-29T20:43:37.888Z,4.06
2022-11-29T20:46:04.554Z,4.02
2022-11-29T20:48:31.178Z,4.10
2022-11-29T20:50:59.754Z,3.92
2022-11-29T20:53:34.561Z,3.93
2022-11-29T20:56:01.087Z,3.91
2022-11-29T20:58:27.800Z,4.16
2022-11-29T21:00:54.879Z,4.05
2022-11-29T21:03:22.256Z,4.03
2022-11-29T21:05:48.753Z,3.98
2022-11-29T21:08:16.064Z,3.99
2022-11-29T21:10:42.646Z,3.97
2022-11-29T21:13:10.581Z,4.11
2022-11-29T21:15:37.201Z,4.21
2022-11-29T21:18:03.860Z,4.05
2022-11-29T21:20:30.470Z,4.04
2022-11-29T21:23:23.216Z,3.89
2022-11-29T21:25:49.606Z,4.01
2022-11-29T21:28:16.839Z,4.01
2022-11-29T21:30:43.668Z,3.95
2022-11-29T21:33:10.603Z,3.97
2022-11-29T21:35:39.762Z,4.17
2022-11-29T21:38:06.806Z,4.01
2022-11-29T21:40:35.192Z,3.97
2022-11-29T21:43:01.646Z,4.04
2022-11-29T21:45:28.100Z,4.12
2022-11-29T21:47:54.831Z,4.15
2022-11-29T21:50:21.342Z,4.16
2022-11-29T21:52:50.755Z,4.14
2022-11-29T21:55:17.237Z,4.11
2022-11-29T21:57:43.697Z,3.96
2022-11-29T22:00:10.355Z,4.03
2022-11-29T22:02:36.896Z,4.24
2022-11-29T22:05:03.482Z,4.02
2022-11-29T22:07:30.003Z,3.95
2022-11-29T22:09:56.498Z,3.85
2022-11-29T22:12:38.014Z,3.92
2022-11-29T22:15:04.799Z,4.03
2022-11-29T22:17:31.207Z,3.94
2022-11-29T22:19:57.664Z,3.94
2022-11-29T22:22:27.155Z,3.95
2022-11-29T22:24:54.576Z,3.91
2022-11-29T22:27:21.026Z,3.98
2022-11-29T22:29:47.462Z,3.94
2022-11-29T22:32:13.973Z,3.91
2022-11-29T22:34:40.499Z,3.88
2022-11-29T22:37:06.933Z,4.00
2022-11-29T22:39:33.421Z,4.05
2022-11-29T22:41:59.851Z,3.96
2022-11-29T22:44:26.379Z,3.94
2022-11-29T22:46:52.988Z,3.91
2022-11-29T22:49:19.480Z,4.11
2022-11-29T22:51:46.029Z,3.96
2022-11-29T22:54:15.414Z,3.98
2022-11-29T22:56:42.811Z,3.96
2022-11-29T22:59:09.277Z,4.02
2022-11-29T23:01:37.207Z,3.99
2022-11-29T23:04:05.315Z,3.99
2022-11-29T23:06:33.016Z,3.90
2022-11-29T23:09:03.139Z,4.01
2022-11-29T23:11:30.435Z,4.09
2022-11-29T23:13:57.073Z,4.08
2022-11-29T23:16:25.471Z,3.95
2022-11-29T23:18:52.314Z,4.08
2022-11-29T23:21:29.028Z,3.88
2022-11-29T23:23:56.901Z,4.01
2022-11-29T23:26:29.605Z,4.01
2022-11-29T23:28:56.344Z,4.02
2022-11-29T23:31:23.580Z,3.90
2022-11-29T23:33:50.261Z,3.79
2022-11-29T23:36:17.377Z,3.84
2022-11-29T23:38:44.122Z,3.91
2022-11-29T23:41:11.668Z,3.87
2022-11-29T23:43:38.894Z,4.01
2022-11-29T23:46:06.483Z,3.90
2022-11-29T23:48:32.955Z,4.10
2022-11-29T23:50:59.453Z,3.92
2022-11-29T23:53:25.925Z,4.04
2022-11-29T23:55:59.563Z,4.07
2022-11-29T23:58:26.391Z,4.11
